sensor_id;sensor_type;location;lat;lon;timestamp;pressure;altitude;pressure_sealevel;temperature;humidity
73453;BME280;61687;56.232;43.854;2022-08-21T00:01:26;102208.41;;;14.45;67.05
73453;BME280;61687;56.232;43.854;2022-08-21T00:03:53;102202.44;;;14.43;67.10
73453;BME280;61687;56.232;43.854;2022-08-21T00:06:19;102194.84;;;14.40;67.02
73453;BME280;61687;56.232;43.854;2022-08-21T00:08:45;102206.59;;;14.37;67.03
73453;BME280;61687;56.232;43.854;2022-08-21T00:11:11;102197.41;;;14.33;67.25
73453;BME280;61687;56.232;43.854;2022-08-21T00:13:37;102204.75;;;14.28;67.30
73453;BME280;61687;56.232;43.854;2022-08-21T00:16:04;102205.81;;;14.24;67.58
73453;BME280;61687;56.232;43.854;2022-08-21T00:18:30;102203.38;;;14.22;67.72
73453;BME280;61687;56.232;43.854;2022-08-21T00:20:56;102199.72;;;14.18;67.94
73453;BME280;61687;56.232;43.854;2022-08-21T00:23:22;102198.44;;;14.15;68.32
73453;BME280;61687;56.232;43.854;2022-08-21T00:25:48;102199.13;;;14.12;68.27
73453;BME280;61687;56.232;43.854;2022-08-21T00:28:15;102192.72;;;14.08;68.64
73453;BME280;61687;56.232;43.854;2022-08-21T00:30:42;102198.91;;;14.05;68.69
73453;BME280;61687;56.232;43.854;2022-08-21T00:33:09;102199.59;;;14.02;68.65
73453;BME280;61687;56.232;43.854;2022-08-21T00:35:38;102195.56;;;13.99;68.78
73453;BME280;61687;56.232;43.854;2022-08-21T00:38:07;102205.78;;;13.99;68.83
73453;BME280;61687;56.232;43.854;2022-08-21T00:40:45;102200.97;;;13.96;69.00
73453;BME280;61687;56.232;43.854;2022-08-21T00:43:17;102204.88;;;13.95;69.21
73453;BME280;61687;56.232;43.854;2022-08-21T00:45:43;102209.13;;;13.92;69.26
73453;BME280;61687;56.232;43.854;2022-08-21T00:48:10;102215.31;;;13.89;69.30
73453;BME280;61687;56.232;43.854;2022-08-21T00:50:40;102217.16;;;13.85;69.64
73453;BME280;61687;56.232;43.854;2022-08-21T00:53:07;102209.56;;;13.82;69.59
73453;BME280;61687;56.232;43.854;2022-08-21T00:55:36;102215.44;;;13.80;69.65
73453;BME280;61687;56.232;43.854;2022-08-21T00:58:06;102213.34;;;13.77;69.70
73453;BME280;61687;56.232;43.854;2022-08-21T01:00:37;102218.41;;;13.75;69.69
73453;BME280;61687;56.232;43.854;2022-08-21T01:03:09;102213.56;;;13.72;69.87
73453;BME280;61687;56.232;43.854;2022-08-21T01:05:36;102219.09;;;13.72;69.90
73453;BME280;61687;56.232;43.854;2022-08-21T01:08:03;102215.88;;;13.70;70.00
73453;BME280;61687;56.232;43.854;2022-08-21T01:10:30;102221.25;;;13.66;69.99
73453;BME280;61687;56.232;43.854;2022-08-21T01:12:57;102220.47;;;13.66;70.19
73453;BME280;61687;56.232;43.854;2022-08-21T01:15:29;102218.41;;;13.63;70.16
73453;BME280;61687;56.232;43.854;2022-08-21T01:17:56;102221.16;;;13.63;70.18
73453;BME280;61687;56.232;43.854;2022-08-21T01:20:22;102221.94;;;13.63;70.25
73453;BME280;61687;56.232;43.854;2022-08-21T01:22:48;102229.75;;;13.61;70.31
73453;BME280;61687;56.232;43.854;2022-08-21T01:25:16;102218.59;;;13.57;70.53
73453;BME280;61687;56.232;43.854;2022-08-21T01:27:43;102220.09;;;13.55;70.58
73453;BME280;61687;56.232;43.854;2022-08-21T01:30:16;102223.19;;;13.53;70.61
73453;BME280;61687;56.232;43.854;2022-08-21T01:32:43;102224.31;;;13.52;70.60
73453;BME280;61687;56.232;43.854;2022-08-21T01:35:10;102227.44;;;13.51;70.56
73453;BME280;61687;56.232;43.854;2022-08-21T01:37:37;102226.28;;;13.52;70.56
73453;BME280;61687;56.232;43.854;2022-08-21T01:40:04;102230.97;;;13.51;70.72
73453;BME280;61687;56.232;43.854;2022-08-21T01:42:32;102219.97;;;13.51;70.65
73453;BME280;61687;56.232;43.854;2022-08-21T01:44:58;102224.69;;;13.51;70.53
73453;BME280;61687;56.232;43.854;2022-08-21T01:47:24;102224.69;;;13.51;70.46
73453;BME280;61687;56.232;43.854;2022-08-21T01:49:50;102232.25;;;13.54;70.39
73453;BME280;61687;56.232;43.854;2022-08-21T01:52:16;102225.94;;;13.53;70.52
73453;BME280;61687;56.232;43.854;2022-08-21T01:54:42;102226.28;;;13.52;70.44
73453;BME280;61687;56.232;43.854;2022-08-21T01:57:09;102224.78;;;13.54;70.50
73453;BME280;61687;56.232;43.854;2022-08-21T01:59:36;102229.97;;;13.56;70.17
73453;BME280;61687;56.232;43.854;2022-08-21T02:02:03;102228.81;;;13.57;70.16
73453;BME280;61687;56.232;43.854;2022-08-21T02:04:29;102217.81;;;13.57;70.02
73453;BME280;61687;56.232;43.854;2022-08-21T02:06:56;102216.31;;;13.59;70.23
73453;BME280;61687;56.232;43.854;2022-08-21T02:09:22;102220.69;;;13.61;70.34
73453;BME280;61687;56.232;43.854;2022-08-21T02:11:48;102224.22;;;13.61;70.27
73453;BME280;61687;56.232;43.854;2022-08-21T02:14:15;102220.34;;;13.62;70.38
73453;BME280;61687;56.232;43.854;2022-08-21T02:16:43;102216.44;;;13.63;70.37
73453;BME280;61687;56.232;43.854;2022-08-21T02:19:10;102220.78;;;13.64;70.22
73453;BME280;61687;56.232;43.854;2022-08-21T02:21:37;102212.53;;;13.64;70.37
73453;BME280;61687;56.232;43.854;2022-08-21T02:24:04;102217.72;;;13.66;70.27
73453;BME280;61687;56.232;43.854;2022-08-21T02:26:30;102211.38;;;13.65;70.24
73453;BME280;61687;56.232;43.854;2022-08-21T02:28:56;102217.34;;;13.67;70.36
73453;BME280;61687;56.232;43.854;2022-08-21T02:31:22;102218.63;;;13.70;70.42
73453;BME280;61687;56.232;43.854;2022-08-21T02:33:48;102210.03;;;13.71;70.45
73453;BME280;61687;56.232;43.854;2022-08-21T02:36:14;102216.47;;;13.76;70.35
73453;BME280;61687;56.232;43.854;2022-08-21T02:38:41;102209.81;;;13.77;70.34
73453;BME280;61687;56.232;43.854;2022-08-21T02:41:11;102215.91;;;13.82;70.18
73453;BME280;61687;56.232;43.854;2022-08-21T02:43:37;102225.41;;;13.85;70.14
73453;BME280;61687;56.232;43.854;2022-08-21T02:46:05;102220.03;;;13.88;70.39
73453;BME280;61687;56.232;43.854;2022-08-21T02:48:32;102226.13;;;13.94;70.36
73453;BME280;61687;56.232;43.854;2022-08-21T02:51:11;102227.03;;;13.98;70.05
73453;BME280;61687;56.232;43.854;2022-08-21T02:53:38;102213.84;;;14.04;69.78
73453;BME280;61687;56.232;43.854;2022-08-21T02:56:07;102220.72;;;14.10;69.93
73453;BME280;61687;56.232;43.854;2022-08-21T02:58:38;102225.69;;;14.17;69.67
73453;BME280;61687;56.232;43.854;2022-08-21T03:01:05;102220.38;;;14.24;69.74
73453;BME280;61687;56.232;43.854;2022-08-21T03:03:36;102224.97;;;14.33;69.68
73453;BME280;61687;56.232;43.854;2022-08-21T03:06:04;102227.59;;;14.41;69.43
73453;BME280;61687;56.232;43.854;2022-08-21T03:08:30;102216.34;;;14.47;69.26
73453;BME280;61687;56.232;43.854;2022-08-21T03:10:57;102217.81;;;14.56;69.60
73453;BME280;61687;56.232;43.854;2022-08-21T03:13:26;102215.72;;;14.66;69.17
73453;BME280;61687;56.232;43.854;2022-08-21T03:15:54;102220.44;;;14.78;69.03
73453;BME280;61687;56.232;43.854;2022-08-21T03:18:20;102217.53;;;14.86;68.09
73453;BME280;61687;56.232;43.854;2022-08-21T03:20:46;102220.25;;;14.99;67.39
73453;BME280;61687;56.232;43.854;2022-08-21T03:23:13;102216.28;;;15.12;67.37
73453;BME280;61687;56.232;43.854;2022-08-21T03:25:40;102215.88;;;15.26;67.60
73453;BME280;61687;56.232;43.854;2022-08-21T03:28:13;102221.00;;;15.40;67.17
73453;BME280;61687;56.232;43.854;2022-08-21T03:30:41;102222.50;;;15.54;66.46
73453;BME280;61687;56.232;43.854;2022-08-21T03:33:07;102224.41;;;15.66;65.87
73453;BME280;61687;56.232;43.854;2022-08-21T03:35:33;102222.78;;;15.81;66.30
73453;BME280;61687;56.232;43.854;2022-08-21T03:37:59;102221.13;;;15.92;66.26
73453;BME280;61687;56.232;43.854;2022-08-21T03:40:25;102221.84;;;16.05;65.29
73453;BME280;61687;56.232;43.854;2022-08-21T03:42:51;102221.75;;;16.17;64.42
73453;BME280;61687;56.232;43.854;2022-08-21T03:45:18;102226.00;;;16.31;64.33
73453;BME280;61687;56.232;43.854;2022-08-21T03:47:59;102221.13;;;16.44;63.72
73453;BME280;61687;56.232;43.854;2022-08-21T03:50:29;102227.00;;;16.58;63.21
73453;BME280;61687;56.232;43.854;2022-08-21T03:52:56;102227.31;;;16.73;62.10
73453;BME280;61687;56.232;43.854;2022-08-21T03:55:23;102227.97;;;16.86;61.58
73453;BME280;61687;56.232;43.854;2022-08-21T03:57:49;102230.25;;;17.00;61.23
73453;BME280;61687;56.232;43.854;2022-08-21T04:00:17;102238.47;;;17.16;61.13
73453;BME280;61687;56.232;43.854;2022-08-21T04:02:45;102231.63;;;17.29;60.91
73453;BME280;61687;56.232;43.854;2022-08-21T04:05:13;102236.63;;;17.43;59.75
73453;BME280;61687;56.232;43.854;2022-08-21T04:07:39;102239.25;;;17.56;59.38
73453;BME280;61687;56.232;43.854;2022-08-21T04:10:06;102229.13;;;17.67;59.32
73453;BME280;61687;56.232;43.854;2022-08-21T04:12:32;102232.91;;;17.79;58.90
73453;BME280;61687;56.232;43.854;2022-08-21T04:14:59;102228.69;;;17.88;58.46
73453;BME280;61687;56.232;43.854;2022-08-21T04:17:25;102225.25;;;17.95;58.10
73453;BME280;61687;56.232;43.854;2022-08-21T04:19:52;102232.16;;;18.05;57.88
73453;BME280;61687;56.232;43.854;2022-08-21T04:22:18;102227.16;;;18.14;57.52
73453;BME280;61687;56.232;43.854;2022-08-21T04:24:44;102228.47;;;18.24;56.95
73453;BME280;61687;56.232;43.854;2022-08-21T04:27:10;102231.06;;;18.37;56.19
73453;BME280;61687;56.232;43.854;2022-08-21T04:29:37;102237.59;;;18.52;55.81
73453;BME280;61687;56.232;43.854;2022-08-21T04:32:03;102238.53;;;18.63;55.35
73453;BME280;61687;56.232;43.854;2022-08-21T04:34:29;102227.16;;;18.72;55.44
73453;BME280;61687;56.232;43.854;2022-08-21T04:36:54;102231.28;;;18.85;55.16
73453;BME280;61687;56.232;43.854;2022-08-21T04:39:20;102234.56;;;18.95;54.77
73453;BME280;61687;56.232;43.854;2022-08-21T04:41:46;102235.91;;;19.05;54.51
73453;BME280;61687;56.232;43.854;2022-08-21T04:44:12;102224.91;;;19.15;53.93
73453;BME280;61687;56.232;43.854;2022-08-21T04:46:38;102231.75;;;19.25;53.29
73453;BME280;61687;56.232;43.854;2022-08-21T04:49:04;102235.41;;;19.33;52.77
73453;BME280;61687;56.232;43.854;2022-08-21T04:51:36;102243.09;;;19.43;52.19
73453;BME280;61687;56.232;43.854;2022-08-21T04:54:12;102235.63;;;19.55;52.35
73453;BME280;61687;56.232;43.854;2022-08-21T04:56:45;102240.88;;;19.64;51.79
73453;BME280;61687;56.232;43.854;2022-08-21T04:59:21;102242.97;;;19.74;51.60
73453;BME280;61687;56.232;43.854;2022-08-21T05:01:49;102239.06;;;19.82;51.67
73453;BME280;61687;56.232;43.854;2022-08-21T05:04:18;102235.91;;;19.87;51.74
73453;BME280;61687;56.232;43.854;2022-08-21T05:06:47;102232.00;;;19.92;51.61
73453;BME280;61687;56.232;43.854;2022-08-21T05:09:16;102236.03;;;19.98;51.27
73453;BME280;61687;56.232;43.854;2022-08-21T05:11:43;102235.28;;;20.05;51.70
73453;BME280;61687;56.232;43.854;2022-08-21T05:14:10;102237.34;;;20.12;51.00
73453;BME280;61687;56.232;43.854;2022-08-21T05:16:37;102239.75;;;20.17;50.54
73453;BME280;61687;56.232;43.854;2022-08-21T05:19:04;102238.19;;;20.23;50.22
73453;BME280;61687;56.232;43.854;2022-08-21T05:21:31;102232.69;;;20.30;50.10
73453;BME280;61687;56.232;43.854;2022-08-21T05:23:57;102237.47;;;20.37;50.16
73453;BME280;61687;56.232;43.854;2022-08-21T05:26:23;102237.91;;;20.43;50.25
73453;BME280;61687;56.232;43.854;2022-08-21T05:28:49;102229.22;;;20.52;50.14
73453;BME280;61687;56.232;43.854;2022-08-21T05:31:15;102226.06;;;20.57;50.75
73453;BME280;61687;56.232;43.854;2022-08-21T05:33:41;102226.09;;;20.64;49.39
73453;BME280;61687;56.232;43.854;2022-08-21T05:36:07;102224.56;;;20.74;48.08
73453;BME280;61687;56.232;43.854;2022-08-21T05:38:33;102223.81;;;20.81;48.02
73453;BME280;61687;56.232;43.854;2022-08-21T05:40:59;102226.63;;;20.88;48.22
73453;BME280;61687;56.232;43.854;2022-08-21T05:43:24;102235.00;;;20.95;48.12
73453;BME280;61687;56.232;43.854;2022-08-21T05:45:51;102223.09;;;21.02;48.29
73453;BME280;61687;56.232;43.854;2022-08-21T05:48:21;102221.91;;;21.10;47.60
73453;BME280;61687;56.232;43.854;2022-08-21T05:50:49;102223.53;;;21.19;47.23
73453;BME280;61687;56.232;43.854;2022-08-21T05:53:17;102227.13;;;21.26;47.63
73453;BME280;61687;56.232;43.854;2022-08-21T05:55:44;102230.34;;;21.36;47.74
73453;BME280;61687;56.232;43.854;2022-08-21T05:58:13;102220.78;;;21.44;47.55
73453;BME280;61687;56.232;43.854;2022-08-21T06:00:39;102225.19;;;21.52;47.41
73453;BME280;61687;56.232;43.854;2022-08-21T06:03:10;102216.03;;;21.59;47.67
73453;BME280;61687;56.232;43.854;2022-08-21T06:05:36;102228.03;;;21.67;47.71
73453;BME280;61687;56.232;43.854;2022-08-21T06:08:03;102226.00;;;21.75;47.22
73453;BME280;61687;56.232;43.854;2022-08-21T06:10:29;102228.81;;;21.82;46.60
73453;BME280;61687;56.232;43.854;2022-08-21T06:12:55;102225.63;;;21.91;46.39
73453;BME280;61687;56.232;43.854;2022-08-21T06:15:21;102220.41;;;21.96;46.56
73453;BME280;61687;56.232;43.854;2022-08-21T06:17:47;102218.41;;;22.04;46.75
73453;BME280;61687;56.232;43.854;2022-08-21T06:20:13;102219.59;;;22.14;46.86
73453;BME280;61687;56.232;43.854;2022-08-21T06:22:39;102216.78;;;22.25;46.80
73453;BME280;61687;56.232;43.854;2022-08-21T06:25:05;102215.16;;;22.35;46.87
73453;BME280;61687;56.232;43.854;2022-08-21T06:27:31;102209.97;;;22.44;47.07
73453;BME280;61687;56.232;43.854;2022-08-21T06:29:57;102213.94;;;22.54;46.97
73453;BME280;61687;56.232;43.854;2022-08-21T06:32:24;102215.09;;;22.60;46.40
73453;BME280;61687;56.232;43.854;2022-08-21T06:34:50;102214.28;;;22.67;45.76
73453;BME280;61687;56.232;43.854;2022-08-21T06:37:15;102215.44;;;22.73;45.92
73453;BME280;61687;56.232;43.854;2022-08-21T06:39:41;102214.22;;;22.81;46.87
73453;BME280;61687;56.232;43.854;2022-08-21T06:42:13;102213.81;;;22.86;46.58
73453;BME280;61687;56.232;43.854;2022-08-21T06:44:40;102215.34;;;22.95;46.02
73453;BME280;61687;56.232;43.854;2022-08-21T06:47:05;102212.94;;;23.00;45.74
73453;BME280;61687;56.232;43.854;2022-08-21T06:49:31;102215.66;;;23.08;45.82
73453;BME280;61687;56.232;43.854;2022-08-21T06:51:57;102213.25;;;23.13;46.51
73453;BME280;61687;56.232;43.854;2022-08-21T06:54:23;102210.41;;;23.21;46.41
73453;BME280;61687;56.232;43.854;2022-08-21T06:56:49;102204.00;;;23.27;46.33
73453;BME280;61687;56.232;43.854;2022-08-21T06:59:15;102206.75;;;23.35;46.35
73453;BME280;61687;56.232;43.854;2022-08-21T07:01:41;102207.84;;;23.44;46.22
73453;BME280;61687;56.232;43.854;2022-08-21T07:04:07;102211.78;;;23.54;45.79
73453;BME280;61687;56.232;43.854;2022-08-21T07:06:33;102200.13;;;23.63;45.89
73453;BME280;61687;56.232;43.854;2022-08-21T07:08:59;102191.69;;;23.70;45.80
73453;BME280;61687;56.232;43.854;2022-08-21T07:11:26;102195.22;;;23.78;45.21
73453;BME280;61687;56.232;43.854;2022-08-21T07:13:53;102196.72;;;23.86;45.55
73453;BME280;61687;56.232;43.854;2022-08-21T07:16:20;102198.66;;;23.93;45.21
73453;BME280;61687;56.232;43.854;2022-08-21T07:18:47;102193.84;;;23.94;45.46
73453;BME280;61687;56.232;43.854;2022-08-21T07:21:15;102191.78;;;23.98;45.21
73453;BME280;61687;56.232;43.854;2022-08-21T07:23:48;102188.16;;;24.05;45.30
73453;BME280;61687;56.232;43.854;2022-08-21T07:26:16;102190.09;;;24.11;45.35
73453;BME280;61687;56.232;43.854;2022-08-21T07:28:43;102192.41;;;24.20;45.32
73453;BME280;61687;56.232;43.854;2022-08-21T07:31:10;102181.13;;;24.27;45.11
73453;BME280;61687;56.232;43.854;2022-08-21T07:33:39;102183.03;;;24.34;44.87
73453;BME280;61687;56.232;43.854;2022-08-21T07:36:06;102184.22;;;24.37;45.40
73453;BME280;61687;56.232;43.854;2022-08-21T07:38:32;102178.16;;;24.42;44.18
73453;BME280;61687;56.232;43.854;2022-08-21T07:41:00;102183.28;;;24.47;43.53
73453;BME280;61687;56.232;43.854;2022-08-21T07:43:27;102178.88;;;24.50;43.34
73453;BME280;61687;56.232;43.854;2022-08-21T07:45:54;102172.00;;;24.54;43.88
73453;BME280;61687;56.232;43.854;2022-08-21T07:48:21;102168.72;;;24.60;43.77
73453;BME280;61687;56.232;43.854;2022-08-21T07:50:47;102167.88;;;24.63;43.84
73453;BME280;61687;56.232;43.854;2022-08-21T07:53:14;102169.00;;;24.69;43.38
73453;BME280;61687;56.232;43.854;2022-08-21T07:55:40;102171.75;;;24.76;42.97
73453;BME280;61687;56.232;43.854;2022-08-21T07:58:06;102166.06;;;24.80;42.71
73453;BME280;61687;56.232;43.854;2022-08-21T08:00:32;102165.22;;;24.83;42.87
73453;BME280;61687;56.232;43.854;2022-08-21T08:02:58;102161.16;;;24.88;42.15
73453;BME280;61687;56.232;43.854;2022-08-21T08:05:27;102157.47;;;24.94;42.74
73453;BME280;61687;56.232;43.854;2022-08-21T08:07:53;102159.00;;;24.99;42.16
73453;BME280;61687;56.232;43.854;2022-08-21T08:10:20;102162.50;;;25.07;41.05
73453;BME280;61687;56.232;43.854;2022-08-21T08:12:47;102155.19;;;25.13;42.55
73453;BME280;61687;56.232;43.854;2022-08-21T08:15:16;102153.91;;;25.18;41.86
73453;BME280;61687;56.232;43.854;2022-08-21T08:17:42;102147.81;;;25.23;41.24
73453;BME280;61687;56.232;43.854;2022-08-21T08:20:10;102140.47;;;25.29;40.40
73453;BME280;61687;56.232;43.854;2022-08-21T08:22:38;102146.38;;;25.38;40.03
73453;BME280;61687;56.232;43.854;2022-08-21T08:25:06;102136.59;;;25.47;39.56
73453;BME280;61687;56.232;43.854;2022-08-21T08:27:32;102137.69;;;25.53;39.55
73453;BME280;61687;56.232;43.854;2022-08-21T08:29:58;102133.22;;;25.59;38.63
73453;BME280;61687;56.232;43.854;2022-08-21T08:32:24;102132.72;;;25.64;38.19
73453;BME280;61687;56.232;43.854;2022-08-21T08:34:51;102133.44;;;25.68;37.86
73453;BME280;61687;56.232;43.854;2022-08-21T08:37:19;102126.09;;;25.75;37.85
73453;BME280;61687;56.232;43.854;2022-08-21T08:39:45;102125.59;;;25.80;38.56
73453;BME280;61687;56.232;43.854;2022-08-21T08:44:45;102122.59;;;25.91;38.09
73453;BME280;61687;56.232;43.854;2022-08-21T08:47:15;102130.94;;;25.94;38.23
73453;BME280;61687;56.232;43.854;2022-08-21T08:52:32;102119.56;;;26.02;36.78
73453;BME280;61687;56.232;43.854;2022-08-21T08:57:30;102117.47;;;26.06;37.24
73453;BME280;61687;56.232;43.854;2022-08-21T09:00:00;102115.91;;;26.05;37.40
73453;BME280;61687;56.232;43.854;2022-08-21T09:02:26;102118.97;;;26.10;37.63
73453;BME280;61687;56.232;43.854;2022-08-21T09:04:55;102119.72;;;26.14;37.20
73453;BME280;61687;56.232;43.854;2022-08-21T09:07:45;102110.78;;;26.20;37.48
73453;BME280;61687;56.232;43.854;2022-08-21T09:10:20;102107.91;;;26.23;37.96
73453;BME280;61687;56.232;43.854;2022-08-21T09:13:12;102099.91;;;26.22;38.28
73453;BME280;61687;56.232;43.854;2022-08-21T09:18:45;102093.13;;;26.19;37.09
73453;BME280;61687;56.232;43.854;2022-08-21T09:24:16;102097.91;;;26.22;36.82
73453;BME280;61687;56.232;43.854;2022-08-21T09:27:08;102100.19;;;26.27;36.49
73453;BME280;61687;56.232;43.854;2022-08-21T09:29:42;102091.59;;;26.35;37.26
73453;BME280;61687;56.232;43.854;2022-08-21T09:32:16;102090.31;;;26.39;36.11
73453;BME280;61687;56.232;43.854;2022-08-21T09:34:59;102086.25;;;26.40;36.33
73453;BME280;61687;56.232;43.854;2022-08-21T09:37:30;102086.91;;;26.48;35.71
73453;BME280;61687;56.232;43.854;2022-08-21T09:39:57;102079.97;;;26.53;35.59
73453;BME280;61687;56.232;43.854;2022-08-21T09:42:32;102074.59;;;26.58;34.62
73453;BME280;61687;56.232;43.854;2022-08-21T09:45:12;102079.28;;;26.65;34.34
73453;BME280;61687;56.232;43.854;2022-08-21T09:47:40;102084.72;;;26.72;34.10
73453;BME280;61687;56.232;43.854;2022-08-21T09:50:12;102072.63;;;26.76;34.69
73453;BME280;61687;56.232;43.854;2022-08-21T09:52:58;102075.78;;;26.78;34.83
73453;BME280;61687;56.232;43.854;2022-08-21T09:55:39;102069.34;;;26.77;35.11
73453;BME280;61687;56.232;43.854;2022-08-21T09:58:33;102072.09;;;26.81;34.65
73453;BME280;61687;56.232;43.854;2022-08-21T10:01:02;102057.91;;;26.84;34.58
73453;BME280;61687;56.232;43.854;2022-08-21T10:03:28;102049.44;;;26.88;33.60
73453;BME280;61687;56.232;43.854;2022-08-21T10:06:01;102054.09;;;26.95;34.26
73453;BME280;61687;56.232;43.854;2022-08-21T10:08:32;102045.19;;;27.13;34.54
73453;BME280;61687;56.232;43.854;2022-08-21T10:11:05;102041.72;;;27.22;33.61
73453;BME280;61687;56.232;43.854;2022-08-21T10:17:06;102044.78;;;27.44;34.00
73453;BME280;61687;56.232;43.854;2022-08-21T10:19:53;102047.84;;;27.50;34.05
73453;BME280;61687;56.232;43.854;2022-08-21T10:25:06;102031.63;;;27.70;33.76
73453;BME280;61687;56.232;43.854;2022-08-21T10:30:21;102038.81;;;27.71;34.92
73453;BME280;61687;56.232;43.854;2022-08-21T10:41:47;102026.84;;;27.67;33.84
73453;BME280;61687;56.232;43.854;2022-08-21T10:47:05;102023.81;;;27.62;33.79
73453;BME280;61687;56.232;43.854;2022-08-21T10:57:22;102017.22;;;27.81;32.52
73453;BME280;61687;56.232;43.854;2022-08-21T11:00:06;102004.97;;;28.14;32.77
73453;BME280;61687;56.232;43.854;2022-08-21T11:02:40;101999.56;;;28.46;32.38
73453;BME280;61687;56.232;43.854;2022-08-21T11:05:16;102003.28;;;28.55;31.41
73453;BME280;61687;56.232;43.854;2022-08-21T11:07:53;102003.41;;;28.52;31.98
73453;BME280;61687;56.232;43.854;2022-08-21T11:13:36;101981.75;;;28.49;31.86
73453;BME280;61687;56.232;43.854;2022-08-21T11:18:57;101975.75;;;28.60;31.41
73453;BME280;61687;56.232;43.854;2022-08-21T11:24:12;101979.47;;;28.56;32.02
73453;BME280;61687;56.232;43.854;2022-08-21T11:26:46;101983.06;;;28.57;31.90
73453;BME280;61687;56.232;43.854;2022-08-21T11:29:18;101978.94;;;28.49;32.80
73453;BME280;61687;56.232;43.854;2022-08-21T11:37:55;101969.38;;;28.20;33.21
73453;BME280;61687;56.232;43.854;2022-08-21T11:45:54;101977.03;;;28.94;32.01
73453;BME280;61687;56.232;43.854;2022-08-21T11:51:09;101968.41;;;29.33;30.82
73453;BME280;61687;56.232;43.854;2022-08-21T11:54:24;101975.84;;;29.39;30.70
73453;BME280;61687;56.232;43.854;2022-08-21T11:56:42;101967.13;;;29.47;31.10
73453;BME280;61687;56.232;43.854;2022-08-21T11:59:19;101967.75;;;29.51;30.46
73453;BME280;61687;56.232;43.854;2022-08-21T12:01:46;101955.34;;;29.48;31.02
73453;BME280;61687;56.232;43.854;2022-08-21T12:04:25;101958.53;;;29.37;30.24
73453;BME280;61687;56.232;43.854;2022-08-21T12:06:52;101962.03;;;29.19;31.13
73453;BME280;61687;56.232;43.854;2022-08-21T12:14:43;101953.03;;;28.89;32.38
73453;BME280;61687;56.232;43.854;2022-08-21T12:17:19;101948.25;;;28.86;32.14
73453;BME280;61687;56.232;43.854;2022-08-21T12:19:57;101949.97;;;28.83;31.83
73453;BME280;61687;56.232;43.854;2022-08-21T12:22:36;101941.19;;;28.81;31.25
73453;BME280;61687;56.232;43.854;2022-08-21T12:25:07;101943.78;;;28.76;31.24
73453;BME280;61687;56.232;43.854;2022-08-21T12:27:49;101944.69;;;28.73;32.48
73453;BME280;61687;56.232;43.854;2022-08-21T12:30:34;101941.75;;;28.76;31.50
73453;BME280;61687;56.232;43.854;2022-08-21T12:33:04;101951.63;;;28.94;31.31
73453;BME280;61687;56.232;43.854;2022-08-21T12:35:37;101936.28;;;29.17;31.56
73453;BME280;61687;56.232;43.854;2022-08-21T12:38:09;101932.91;;;29.45;30.82
73453;BME280;61687;56.232;43.854;2022-08-21T12:40:43;101933.00;;;29.63;30.09
73453;BME280;61687;56.232;43.854;2022-08-21T12:43:20;101933.22;;;29.78;30.33
73453;BME280;61687;56.232;43.854;2022-08-21T12:45:49;101931.00;;;30.05;30.69
73453;BME280;61687;56.232;43.854;2022-08-21T12:48:25;101928.81;;;30.78;29.17
73453;BME280;61687;56.232;43.854;2022-08-21T12:50:55;101925.03;;;32.62;27.73
73453;BME280;61687;56.232;43.854;2022-08-21T12:53:52;101926.75;;;34.87;25.60
73453;BME280;61687;56.232;43.854;2022-08-21T12:56:25;101921.94;;;37.05;23.34
73453;BME280;61687;56.232;43.854;2022-08-21T12:59:04;101913.63;;;38.94;21.75
73453;BME280;61687;56.232;43.854;2022-08-21T13:01:33;101915.72;;;40.29;20.21
73453;BME280;61687;56.232;43.854;2022-08-21T13:04:16;101921.75;;;41.35;19.09
73453;BME280;61687;56.232;43.854;2022-08-21T13:06:47;101911.09;;;42.03;18.52
73453;BME280;61687;56.232;43.854;2022-08-21T13:09:18;101903.03;;;42.50;18.04
73453;BME280;61687;56.232;43.854;2022-08-21T13:11:47;101908.38;;;43.01;17.75
73453;BME280;61687;56.232;43.854;2022-08-21T13:14:38;101897.28;;;43.56;16.85
73453;BME280;61687;56.232;43.854;2022-08-21T13:17:06;101900.50;;;43.73;16.93
73453;BME280;61687;56.232;43.854;2022-08-21T13:19:33;101902.06;;;43.82;16.39
73453;BME280;61687;56.232;43.854;2022-08-21T13:22:00;101903.09;;;43.93;16.48
73453;BME280;61687;56.232;43.854;2022-08-21T13:24:29;101893.72;;;44.08;16.27
73453;BME280;61687;56.232;43.854;2022-08-21T13:26:56;101891.25;;;44.12;16.42
73453;BME280;61687;56.232;43.854;2022-08-21T13:29:28;101894.91;;;44.12;16.58
73453;BME280;61687;56.232;43.854;2022-08-21T13:31:57;101884.16;;;44.21;16.58
73453;BME280;61687;56.232;43.854;2022-08-21T13:34:31;101883.63;;;44.45;15.78
73453;BME280;61687;56.232;43.854;2022-08-21T13:37:03;101877.34;;;44.55;16.21
73453;BME280;61687;56.232;43.854;2022-08-21T13:39:30;101876.50;;;44.46;15.51
73453;BME280;61687;56.232;43.854;2022-08-21T13:41:59;101877.03;;;44.22;16.06
73453;BME280;61687;56.232;43.854;2022-08-21T13:47:02;101877.91;;;44.09;16.34
73453;BME280;61687;56.232;43.854;2022-08-21T13:49:34;101884.53;;;44.17;16.32
73453;BME280;61687;56.232;43.854;2022-08-21T13:52:03;101873.19;;;44.19;16.08
73453;BME280;61687;56.232;43.854;2022-08-21T13:54:36;101879.88;;;44.14;16.07
73453;BME280;61687;56.232;43.854;2022-08-21T13:57:03;101874.00;;;43.91;16.11
73453;BME280;61687;56.232;43.854;2022-08-21T13:59:34;101872.09;;;43.64;16.40
73453;BME280;61687;56.232;43.854;2022-08-21T14:02:22;101874.69;;;43.46;16.03
73453;BME280;61687;56.232;43.854;2022-08-21T14:05:00;101872.69;;;43.33;16.42